sensor_id;sensor_type;location;lat;lon;timestamp;P1;durP1;ratioP1;P2;durP2;ratioP2
42666;SDS011;28280;49.646;14.130;2022-12-29T00:03:26;5.03;;;2.90;;
42666;SDS011;28280;49.646;14.130;2022-12-29T00:08:57;3.58;;;2.45;;
42666;SDS011;28280;49.646;14.130;2022-12-29T00:14:29;3.25;;;2.25;;
42666;SDS011;28280;49.646;14.130;2022-12-29T00:20:19;4.95;;;2.35;;
42666;SDS011;28280;49.646;14.130;2022-12-29T00:26:12;4.57;;;2.30;;
42666;SDS011;28280;49.646;14.130;2022-12-29T00:32:06;4.72;;;2.70;;
42666;SDS011;28280;49.646;14.130;2022-12-29T00:37:57;3.40;;;2.38;;
42666;SDS011;28280;49.646;14.130;2022-12-29T00:43:49;3.50;;;2.20;;
42666;SDS011;28280;49.646;14.130;2022-12-29T00:49:36;4.20;;;2.28;;
42666;SDS011;28280;49.646;14.130;2022-12-29T00:55:08;3.90;;;2.22;;
42666;SDS011;28280;49.646;14.130;2022-12-29T01:00:39;4.07;;;2.30;;
42666;SDS011;28280;49.646;14.130;2022-12-29T01:06:10;4.55;;;2.35;;
42666;SDS011;28280;49.646;14.130;2022-12-29T01:11:42;4.35;;;2.20;;
42666;SDS011;28280;49.646;14.130;2022-12-29T01:17:14;4.10;;;2.30;;
42666;SDS011;28280;49.646;14.130;2022-12-29T01:22:46;4.95;;;2.35;;
42666;SDS011;28280;49.646;14.130;2022-12-29T01:28:18;3.78;;;2.25;;
42666;SDS011;28280;49.646;14.130;2022-12-29T01:33:55;3.47;;;1.92;;
42666;SDS011;28280;49.646;14.130;2022-12-29T01:39:27;4.63;;;2.28;;
42666;SDS011;28280;49.646;14.130;2022-12-29T01:45:17;3.67;;;2.00;;
42666;SDS011;28280;49.646;14.130;2022-12-29T01:50:50;3.92;;;2.38;;
42666;SDS011;28280;49.646;14.130;2022-12-29T01:56:22;2.70;;;2.00;;
42666;SDS011;28280;49.646;14.130;2022-12-29T02:01:53;4.53;;;2.10;;
42666;SDS011;28280;49.646;14.130;2022-12-29T02:07:25;4.18;;;2.25;;
42666;SDS011;28280;49.646;14.130;2022-12-29T02:12:58;4.53;;;2.20;;
42666;SDS011;28280;49.646;14.130;2022-12-29T02:36:29;4.22;;;1.85;;
42666;SDS011;28280;49.646;14.130;2022-12-29T02:42:13;3.55;;;2.25;;
42666;SDS011;28280;49.646;14.130;2022-12-29T02:54:18;3.75;;;1.90;;
42666;SDS011;28280;49.646;14.130;2022-12-29T03:00:11;3.35;;;1.83;;
42666;SDS011;28280;49.646;14.130;2022-12-29T03:11:49;3.47;;;1.77;;
42666;SDS011;28280;49.646;14.130;2022-12-29T03:23:19;3.33;;;1.73;;
42666;SDS011;28280;49.646;14.130;2022-12-29T03:28:53;4.57;;;2.17;;
42666;SDS011;28280;49.646;14.130;2022-12-29T03:34:27;4.07;;;2.17;;
42666;SDS011;28280;49.646;14.130;2022-12-29T03:39:59;4.13;;;2.05;;
42666;SDS011;28280;49.646;14.130;2022-12-29T03:45:30;3.10;;;1.50;;
42666;SDS011;28280;49.646;14.130;2022-12-29T03:51:02;3.40;;;1.92;;
42666;SDS011;28280;49.646;14.130;2022-12-29T03:56:34;3.63;;;1.90;;
42666;SDS011;28280;49.646;14.130;2022-12-29T04:02:06;2.42;;;1.60;;
42666;SDS011;28280;49.646;14.130;2022-12-29T04:07:38;3.40;;;2.00;;
42666;SDS011;28280;49.646;14.130;2022-12-29T04:13:10;2.83;;;1.85;;
42666;SDS011;28280;49.646;14.130;2022-12-29T04:18:42;2.60;;;1.60;;
42666;SDS011;28280;49.646;14.130;2022-12-29T04:24:13;4.13;;;1.77;;
42666;SDS011;28280;49.646;14.130;2022-12-29T04:29:45;3.13;;;1.30;;
42666;SDS011;28280;49.646;14.130;2022-12-29T04:35:39;2.90;;;1.48;;
42666;SDS011;28280;49.646;14.130;2022-12-29T04:41:11;3.25;;;1.40;;
42666;SDS011;28280;49.646;14.130;2022-12-29T04:46:43;3.13;;;1.70;;
42666;SDS011;28280;49.646;14.130;2022-12-29T04:52:25;3.40;;;1.60;;
42666;SDS011;28280;49.646;14.130;2022-12-29T04:57:59;2.95;;;1.60;;
42666;SDS011;28280;49.646;14.130;2022-12-29T05:03:33;3.10;;;1.25;;
42666;SDS011;28280;49.646;14.130;2022-12-29T05:09:05;2.67;;;1.42;;
42666;SDS011;28280;49.646;14.130;2022-12-29T05:14:38;2.42;;;1.52;;
42666;SDS011;28280;49.646;14.130;2022-12-29T05:20:11;3.20;;;1.33;;
42666;SDS011;28280;49.646;14.130;2022-12-29T05:25:43;2.53;;;1.48;;
42666;SDS011;28280;49.646;14.130;2022-12-29T05:31:33;3.53;;;1.48;;
42666;SDS011;28280;49.646;14.130;2022-12-29T05:37:08;2.45;;;1.17;;
42666;SDS011;28280;49.646;14.130;2022-12-29T05:48:24;2.17;;;1.20;;
42666;SDS011;28280;49.646;14.130;2022-12-29T05:54:27;2.72;;;1.30;;
42666;SDS011;28280;49.646;14.130;2022-12-29T06:00:00;2.30;;;1.33;;
42666;SDS011;28280;49.646;14.130;2022-12-29T06:05:32;2.47;;;1.40;;
42666;SDS011;28280;49.646;14.130;2022-12-29T06:11:03;2.45;;;1.45;;
42666;SDS011;28280;49.646;14.130;2022-12-29T06:16:35;2.00;;;1.40;;
42666;SDS011;28280;49.646;14.130;2022-12-29T06:22:11;1.42;;;1.00;;
42666;SDS011;28280;49.646;14.130;2022-12-29T06:27:44;2.92;;;1.50;;
42666;SDS011;28280;49.646;14.130;2022-12-29T06:33:15;2.45;;;1.33;;
42666;SDS011;28280;49.646;14.130;2022-12-29T06:38:47;3.35;;;1.50;;
42666;SDS011;28280;49.646;14.130;2022-12-29T06:44:22;2.33;;;1.40;;
42666;SDS011;28280;49.646;14.130;2022-12-29T06:50:03;2.00;;;1.30;;
42666;SDS011;28280;49.646;14.130;2022-12-29T06:55:35;2.95;;;1.58;;
42666;SDS011;28280;49.646;14.130;2022-12-29T07:01:07;1.88;;;1.25;;
42666;SDS011;28280;49.646;14.130;2022-12-29T07:06:38;1.63;;;1.20;;
42666;SDS011;28280;49.646;14.130;2022-12-29T07:12:11;2.08;;;1.20;;
42666;SDS011;28280;49.646;14.130;2022-12-29T07:17:43;2.80;;;1.40;;
42666;SDS011;28280;49.646;14.130;2022-12-29T07:23:15;2.30;;;1.35;;
42666;SDS011;28280;49.646;14.130;2022-12-29T07:28:46;3.30;;;1.45;;
42666;SDS011;28280;49.646;14.130;2022-12-29T07:34:17;2.33;;;1.20;;
42666;SDS011;28280;49.646;14.130;2022-12-29T07:39:49;2.60;;;1.08;;
42666;SDS011;28280;49.646;14.130;2022-12-29T07:45:20;2.10;;;1.20;;
42666;SDS011;28280;49.646;14.130;2022-12-29T07:51:06;1.60;;;0.90;;
42666;SDS011;28280;49.646;14.130;2022-12-29T07:56:37;1.65;;;1.08;;
42666;SDS011;28280;49.646;14.130;2022-12-29T08:02:11;2.72;;;1.40;;
42666;SDS011;28280;49.646;14.130;2022-12-29T08:07:44;2.78;;;1.42;;
42666;SDS011;28280;49.646;14.130;2022-12-29T08:13:15;1.88;;;1.27;;
42666;SDS011;28280;49.646;14.130;2022-12-29T08:18:47;2.78;;;1.65;;
42666;SDS011;28280;49.646;14.130;2022-12-29T08:24:18;4.25;;;1.85;;
42666;SDS011;28280;49.646;14.130;2022-12-29T08:29:49;2.65;;;1.15;;
42666;SDS011;28280;49.646;14.130;2022-12-29T08:35:20;2.47;;;1.20;;
42666;SDS011;28280;49.646;14.130;2022-12-29T08:40:52;3.55;;;1.40;;
42666;SDS011;28280;49.646;14.130;2022-12-29T08:46:24;2.95;;;1.30;;
42666;SDS011;28280;49.646;14.130;2022-12-29T08:51:55;1.80;;;1.10;;
42666;SDS011;28280;49.646;14.130;2022-12-29T08:57:26;3.05;;;1.60;;
42666;SDS011;28280;49.646;14.130;2022-12-29T09:03:08;1.45;;;1.05;;
42666;SDS011;28280;49.646;14.130;2022-12-29T09:08:40;1.95;;;1.10;;
42666;SDS011;28280;49.646;14.130;2022-12-29T09:14:11;2.95;;;1.40;;
42666;SDS011;28280;49.646;14.130;2022-12-29T09:19:43;1.85;;;1.10;;
42666;SDS011;28280;49.646;14.130;2022-12-29T09:25:14;2.63;;;1.58;;
42666;SDS011;28280;49.646;14.130;2022-12-29T09:30:46;1.90;;;1.10;;
42666;SDS011;28280;49.646;14.130;2022-12-29T09:36:17;3.22;;;1.02;;
42666;SDS011;28280;49.646;14.130;2022-12-29T09:41:49;2.22;;;1.20;;
42666;SDS011;28280;49.646;14.130;2022-12-29T09:47:27;1.77;;;1.30;;
42666;SDS011;28280;49.646;14.130;2022-12-29T09:53:04;2.25;;;1.30;;
42666;SDS011;28280;49.646;14.130;2022-12-29T09:58:45;2.72;;;1.20;;
42666;SDS011;28280;49.646;14.130;2022-12-29T10:04:39;2.70;;;1.10;;
42666;SDS011;28280;49.646;14.130;2022-12-29T10:15:57;1.90;;;1.20;;
42666;SDS011;28280;49.646;14.130;2022-12-29T10:21:36;2.28;;;1.15;;
42666;SDS011;28280;49.646;14.130;2022-12-29T10:27:22;1.88;;;1.15;;
42666;SDS011;28280;49.646;14.130;2022-12-29T10:32:56;2.17;;;1.35;;
42666;SDS011;28280;49.646;14.130;2022-12-29T10:38:40;2.95;;;1.00;;
42666;SDS011;28280;49.646;14.130;2022-12-29T10:44:18;1.70;;;1.15;;
42666;SDS011;28280;49.646;14.130;2022-12-29T10:49:51;2.35;;;1.00;;
42666;SDS011;28280;49.646;14.130;2022-12-29T10:55:25;1.50;;;1.08;;
42666;SDS011;28280;49.646;14.130;2022-12-29T11:00:59;2.00;;;1.00;;
42666;SDS011;28280;49.646;14.130;2022-12-29T11:06:31;2.78;;;1.30;;
42666;SDS011;28280;49.646;14.130;2022-12-29T11:12:20;2.70;;;1.48;;
42666;SDS011;28280;49.646;14.130;2022-12-29T11:17:57;1.63;;;1.15;;
42666;SDS011;28280;49.646;14.130;2022-12-29T11:23:37;2.03;;;1.27;;
42666;SDS011;28280;49.646;14.130;2022-12-29T11:34:47;1.70;;;1.30;;
42666;SDS011;28280;49.646;14.130;2022-12-29T11:40:19;2.08;;;1.25;;
42666;SDS011;28280;49.646;14.130;2022-12-29T11:45:51;1.98;;;1.10;;
42666;SDS011;28280;49.646;14.130;2022-12-29T11:51:27;1.77;;;1.10;;
42666;SDS011;28280;49.646;14.130;2022-12-29T11:57:08;1.85;;;1.00;;
42666;SDS011;28280;49.646;14.130;2022-12-29T12:02:53;2.50;;;1.40;;
42666;SDS011;28280;49.646;14.130;2022-12-29T12:14:19;1.85;;;1.10;;
42666;SDS011;28280;49.646;14.130;2022-12-29T12:20:45;2.42;;;1.45;;
42666;SDS011;28280;49.646;14.130;2022-12-29T12:26:22;3.55;;;1.10;;
42666;SDS011;28280;49.646;14.130;2022-12-29T12:32:02;2.60;;;1.33;;
42666;SDS011;28280;49.646;14.130;2022-12-29T12:38:23;1.73;;;1.05;;
42666;SDS011;28280;49.646;14.130;2022-12-29T12:43:50;2.17;;;1.08;;
42666;SDS011;28280;49.646;14.130;2022-12-29T12:56:03;2.95;;;1.33;;
42666;SDS011;28280;49.646;14.130;2022-12-29T13:13:47;1.50;;;1.10;;
42666;SDS011;28280;49.646;14.130;2022-12-29T13:37:11;2.47;;;1.40;;
42666;SDS011;28280;49.646;14.130;2022-12-29T13:42:44;1.40;;;1.00;;
42666;SDS011;28280;49.646;14.130;2022-12-29T13:48:24;3.13;;;0.98;;
42666;SDS011;28280;49.646;14.130;2022-12-29T13:59:59;2.65;;;1.30;;
42666;SDS011;28280;49.646;14.130;2022-12-29T14:06:02;2.85;;;1.30;;
42666;SDS011;28280;49.646;14.130;2022-12-29T14:11:48;2.17;;;1.35;;
42666;SDS011;28280;49.646;14.130;2022-12-29T14:17:19;3.22;;;1.23;;
42666;SDS011;28280;49.646;14.130;2022-12-29T14:34:56;2.50;;;1.33;;
42666;SDS011;28280;49.646;14.130;2022-12-29T14:40:31;2.50;;;1.10;;
42666;SDS011;28280;49.646;14.130;2022-12-29T14:46:04;2.92;;;1.33;;
42666;SDS011;28280;49.646;14.130;2022-12-29T14:51:38;4.22;;;1.27;;
42666;SDS011;28280;49.646;14.130;2022-12-29T14:57:13;2.00;;;1.30;;
42666;SDS011;28280;49.646;14.130;2022-12-29T15:03:04;2.33;;;1.10;;
42666;SDS011;28280;49.646;14.130;2022-12-29T15:08:37;2.78;;;1.40;;
42666;SDS011;28280;49.646;14.130;2022-12-29T15:14:28;3.40;;;2.03;;
42666;SDS011;28280;49.646;14.130;2022-12-29T15:26:05;3.50;;;1.33;;
42666;SDS011;28280;49.646;14.130;2022-12-29T15:31:42;2.13;;;1.30;;
42666;SDS011;28280;49.646;14.130;2022-12-29T15:37:19;1.83;;;1.20;;
42666;SDS011;28280;49.646;14.130;2022-12-29T15:48:47;2.55;;;1.20;;
42666;SDS011;28280;49.646;14.130;2022-12-29T15:54:19;2.75;;;1.10;;
42666;SDS011;28280;49.646;14.130;2022-12-29T15:59:52;2.23;;;1.23;;
42666;SDS011;28280;49.646;14.130;2022-12-29T16:05:28;1.70;;;1.02;;
42666;SDS011;28280;49.646;14.130;2022-12-29T16:16:57;2.00;;;1.50;;
42666;SDS011;28280;49.646;14.130;2022-12-29T16:22:32;1.77;;;1.10;;
42666;SDS011;28280;49.646;14.130;2022-12-29T16:28:14;3.78;;;1.45;;
42666;SDS011;28280;49.646;14.130;2022-12-29T16:33:52;2.33;;;1.40;;
42666;SDS011;28280;49.646;14.130;2022-12-29T16:51:29;3.25;;;1.52;;
42666;SDS011;28280;49.646;14.130;2022-12-29T16:57:02;2.38;;;1.30;;
42666;SDS011;28280;49.646;14.130;2022-12-29T17:02:34;2.13;;;1.35;;
42666;SDS011;28280;49.646;14.130;2022-12-29T17:08:20;1.85;;;1.40;;
42666;SDS011;28280;49.646;14.130;2022-12-29T17:13:54;2.55;;;1.50;;
42666;SDS011;28280;49.646;14.130;2022-12-29T17:19:33;3.25;;;1.73;;
42666;SDS011;28280;49.646;14.130;2022-12-29T17:25:05;2.45;;;1.48;;
42666;SDS011;28280;49.646;14.130;2022-12-29T17:30:37;3.83;;;1.73;;
42666;SDS011;28280;49.646;14.130;2022-12-29T17:36:11;2.30;;;1.48;;
42666;SDS011;28280;49.646;14.130;2022-12-29T17:41:42;2.85;;;1.45;;
42666;SDS011;28280;49.646;14.130;2022-12-29T17:47:15;3.42;;;1.48;;
42666;SDS011;28280;49.646;14.130;2022-12-29T17:52:48;1.73;;;1.38;;
42666;SDS011;28280;49.646;14.130;2022-12-29T17:58:23;2.30;;;1.73;;
42666;SDS011;28280;49.646;14.130;2022-12-29T18:03:56;3.83;;;1.80;;
42666;SDS011;28280;49.646;14.130;2022-12-29T18:09:27;2.95;;;1.80;;
42666;SDS011;28280;49.646;14.130;2022-12-29T18:14:58;2.92;;;1.60;;
42666;SDS011;28280;49.646;14.130;2022-12-29T18:20:29;2.60;;;1.70;;
42666;SDS011;28280;49.646;14.130;2022-12-29T18:26:12;3.05;;;1.77;;
42666;SDS011;28280;49.646;14.130;2022-12-29T18:31:45;3.55;;;1.88;;
42666;SDS011;28280;49.646;14.130;2022-12-29T18:37:17;4.13;;;1.95;;
42666;SDS011;28280;49.646;14.130;2022-12-29T18:42:48;3.08;;;2.08;;
42666;SDS011;28280;49.646;14.130;2022-12-29T18:48:20;4.18;;;1.75;;
42666;SDS011;28280;49.646;14.130;2022-12-29T18:53:52;3.97;;;2.25;;
42666;SDS011;28280;49.646;14.130;2022-12-29T18:59:26;3.15;;;1.90;;
42666;SDS011;28280;49.646;14.130;2022-12-29T19:04:57;4.35;;;1.92;;
42666;SDS011;28280;49.646;14.130;2022-12-29T19:10:37;3.65;;;1.83;;
42666;SDS011;28280;49.646;14.130;2022-12-29T19:16:16;5.10;;;2.03;;
42666;SDS011;28280;49.646;14.130;2022-12-29T19:21:50;4.72;;;1.90;;
42666;SDS011;28280;49.646;14.130;2022-12-29T19:27:27;3.15;;;1.92;;
42666;SDS011;28280;49.646;14.130;2022-12-29T19:32:58;3.60;;;2.13;;
42666;SDS011;28280;49.646;14.130;2022-12-29T19:38:39;3.83;;;2.25;;
42666;SDS011;28280;49.646;14.130;2022-12-29T19:44:10;3.83;;;2.42;;
42666;SDS011;28280;49.646;14.130;2022-12-29T19:49:42;3.55;;;2.00;;
42666;SDS011;28280;49.646;14.130;2022-12-29T19:55:14;4.28;;;1.90;;
42666;SDS011;28280;49.646;14.130;2022-12-29T20:00:46;3.47;;;2.10;;
42666;SDS011;28280;49.646;14.130;2022-12-29T20:06:19;4.47;;;2.17;;
42666;SDS011;28280;49.646;14.130;2022-12-29T20:11:51;3.28;;;1.90;;
42666;SDS011;28280;49.646;14.130;2022-12-29T20:17:22;3.28;;;1.95;;
42666;SDS011;28280;49.646;14.130;2022-12-29T20:23:14;2.72;;;1.85;;
42666;SDS011;28280;49.646;14.130;2022-12-29T20:28:45;4.45;;;2.13;;
42666;SDS011;28280;49.646;14.130;2022-12-29T20:34:17;3.65;;;1.90;;
42666;SDS011;28280;49.646;14.130;2022-12-29T20:39:49;3.25;;;1.92;;
42666;SDS011;28280;49.646;14.130;2022-12-29T20:45:20;2.83;;;1.90;;
42666;SDS011;28280;49.646;14.130;2022-12-29T20:50:51;3.33;;;1.98;;
42666;SDS011;28280;49.646;14.130;2022-12-29T20:56:24;2.45;;;1.90;;
42666;SDS011;28280;49.646;14.130;2022-12-29T21:01:57;4.13;;;2.10;;
42666;SDS011;28280;49.646;14.130;2022-12-29T21:07:28;4.03;;;2.25;;
42666;SDS011;28280;49.646;14.130;2022-12-29T21:12:59;3.95;;;2.20;;
42666;SDS011;28280;49.646;14.130;2022-12-29T21:18:31;3.78;;;1.90;;
42666;SDS011;28280;49.646;14.130;2022-12-29T21:24:03;2.97;;;1.90;;
42666;SDS011;28280;49.646;14.130;2022-12-29T21:29:37;3.88;;;2.00;;
42666;SDS011;28280;49.646;14.130;2022-12-29T21:35:08;4.40;;;2.38;;
42666;SDS011;28280;49.646;14.130;2022-12-29T21:40:40;3.58;;;2.22;;
42666;SDS011;28280;49.646;14.130;2022-12-29T21:46:11;3.65;;;2.08;;
42666;SDS011;28280;49.646;14.130;2022-12-29T21:51:43;4.13;;;2.10;;
42666;SDS011;28280;49.646;14.130;2022-12-29T21:57:20;4.25;;;2.40;;
42666;SDS011;28280;49.646;14.130;2022-12-29T22:03:10;3.35;;;2.30;;
42666;SDS011;28280;49.646;14.130;2022-12-29T22:09:00;3.67;;;2.20;;
42666;SDS011;28280;49.646;14.130;2022-12-29T22:14:50;5.95;;;2.60;;
42666;SDS011;28280;49.646;14.130;2022-12-29T22:20:27;3.85;;;2.50;;
42666;SDS011;28280;49.646;14.130;2022-12-29T22:26:03;3.47;;;2.25;;
42666;SDS011;28280;49.646;14.130;2022-12-29T22:31:35;4.22;;;2.10;;
42666;SDS011;28280;49.646;14.130;2022-12-29T22:37:06;4.15;;;2.50;;
42666;SDS011;28280;49.646;14.130;2022-12-29T22:42:38;2.70;;;2.00;;
42666;SDS011;28280;49.646;14.130;2022-12-29T22:48:09;4.18;;;2.30;;
42666;SDS011;28280;49.646;14.130;2022-12-29T22:53:41;5.30;;;2.35;;
42666;SDS011;28280;49.646;14.130;2022-12-29T22:59:12;4.22;;;2.47;;
42666;SDS011;28280;49.646;14.130;2022-12-29T23:04:44;4.32;;;2.63;;
42666;SDS011;28280;49.646;14.130;2022-12-29T23:10:34;4.80;;;2.53;;
42666;SDS011;28280;49.646;14.130;2022-12-29T23:16:06;4.20;;;2.33;;
42666;SDS011;28280;49.646;14.130;2022-12-29T23:21:37;4.18;;;2.60;;
42666;SDS011;28280;49.646;14.130;2022-12-29T23:27:09;4.68;;;2.50;;
42666;SDS011;28280;49.646;14.130;2022-12-29T23:32:40;5.32;;;2.65;;
42666;SDS011;28280;49.646;14.130;2022-12-29T23:38:12;4.88;;;2.60;;
42666;SDS011;28280;49.646;14.130;2022-12-29T23:43:43;4.32;;;2.22;;
42666;SDS011;28280;49.646;14.130;2022-12-29T23:49:14;5.50;;;2.78;;
42666;SDS011;28280;49.646;14.130;2022-12-29T23:54:45;5.55;;;2.50;;
